createdAt,value
2022-09-20T00:02:10.450Z,0.00
2022-09-20T00:07:12.653Z,2.00
2022-09-20T00:12:14.805Z,1.00
2022-09-20T00:17:16.937Z,1.33
2022-09-20T00:22:19.453Z,2.00
2022-09-20T00:27:21.600Z,0.33
2022-09-20T00:32:23.942Z,1.00
2022-09-20T00:37:26.312Z,0.00
2022-09-20T00:42:30.540Z,1.00
2022-09-20T00:47:43.930Z,1.00
2022-09-20T00:52:51.838Z,1.00
2022-09-20T00:57:54.735Z,1.00
2022-09-20T01:03:03.262Z,1.00
2022-09-20T01:08:06.234Z,1.00
2022-09-20T01:13:08.505Z,1.00
2022-09-20T01:18:11.591Z,1.00
2022-09-20T01:23:32.384Z,1.00
2022-09-20T01:28:35.617Z,1.00
2022-09-20T01:33:37.759Z,1.00
2022-09-20T01:39:01.480Z,1.00
2022-09-20T01:44:25.192Z,1.75
2022-09-20T01:49:51.950Z,1.00
2022-09-20T01:55:12.781Z,1.00
2022-09-20T02:00:21.876Z,1.00
2022-09-20T02:05:45.884Z,1.00
2022-09-20T02:11:04.057Z,2.25
2022-09-20T02:16:24.938Z,2.00
2022-09-20T02:21:45.442Z,2.00
2022-09-20T02:27:02.853Z,0.00
2022-09-20T02:32:29.317Z,2.00
2022-09-20T02:38:11.781Z,1.00
2022-09-20T02:43:31.858Z,2.50
2022-09-20T02:48:48.421Z,2.00
2022-09-20T02:54:18.339Z,1.00
2022-09-20T02:59:35.830Z,1.00
2022-09-20T03:05:11.582Z,1.00
2022-09-20T03:10:29.354Z,2.00
2022-09-20T03:16:01.313Z,2.00
2022-09-20T03:21:31.296Z,1.00
2022-09-20T03:27:03.914Z,1.75
2022-09-20T03:32:39.792Z,2.00
2022-09-20T03:38:01.283Z,2.00
2022-09-20T03:43:30.344Z,2.00
2022-09-20T03:49:14.401Z,1.00
2022-09-20T03:54:56.024Z,2.00
2022-09-20T04:00:23.645Z,2.00
2022-09-20T04:05:42.045Z,0.50
2022-09-20T04:11:27.178Z,1.00
2022-09-20T04:16:33.356Z,0.00
2022-09-20T04:21:42.056Z,1.00
2022-09-20T04:27:12.627Z,1.00
2022-09-20T04:32:34.030Z,1.00
2022-09-20T04:37:38.630Z,1.25
2022-09-20T04:42:42.990Z,1.50
2022-09-20T04:47:54.383Z,1.00
2022-09-20T04:53:30.586Z,0.75
2022-09-20T04:58:38.865Z,1.00
2022-09-20T05:04:20.554Z,1.75
2022-09-20T05:09:37.611Z,1.00
2022-09-20T05:15:08.289Z,1.75
2022-09-20T05:20:47.993Z,2.75
2022-09-20T05:26:18.054Z,2.00
2022-09-20T05:31:49.936Z,1.75
2022-09-20T05:37:12.390Z,2.00
2022-09-20T05:42:30.148Z,2.00
2022-09-20T05:47:44.122Z,0.00
2022-09-20T05:52:55.328Z,2.00
2022-09-20T05:58:22.024Z,1.00
2022-09-20T06:03:46.549Z,1.00
2022-09-20T06:09:07.510Z,1.75
2022-09-20T06:14:48.308Z,2.00
2022-09-20T06:20:21.077Z,2.00
2022-09-20T06:25:31.354Z,2.00
2022-09-20T06:30:52.669Z,2.00
2022-09-20T06:36:20.830Z,2.00
2022-09-20T06:41:29.972Z,1.00
2022-09-20T06:46:36.251Z,2.00
2022-09-20T06:51:39.257Z,2.00
2022-09-20T06:56:41.523Z,1.00
2022-09-20T07:01:43.841Z,1.75
2022-09-20T07:06:46.096Z,2.00
2022-09-20T07:11:48.273Z,2.00
2022-09-20T07:16:50.824Z,2.00
2022-09-20T07:21:54.390Z,2.00
2022-09-20T07:26:59.694Z,2.00
2022-09-20T07:32:02.247Z,2.00
2022-09-20T07:37:04.937Z,2.00
2022-09-20T07:42:07.554Z,1.67
2022-09-20T07:47:11.227Z,2.00
2022-09-20T07:52:14.794Z,2.00
2022-09-20T07:57:17.289Z,2.00
2022-09-20T08:02:19.609Z,2.00
2022-09-20T08:07:21.826Z,2.33
2022-09-20T08:17:48.162Z,2.00
2022-09-20T08:23:12.622Z,1.67
2022-09-20T08:28:12.618Z,2.33
2022-09-20T08:33:15.248Z,1.67
2022-09-20T08:43:45.576Z,1.00
2022-09-20T08:48:48.229Z,2.50
2022-09-20T08:53:54.077Z,3.00
2022-09-20T08:59:00.188Z,4.50
2022-09-20T09:04:13.226Z,4.00
2022-09-20T09:09:25.345Z,3.25
2022-09-20T09:15:02.750Z,4.00
2022-09-20T09:20:24.663Z,4.00
2022-09-20T09:25:34.557Z,5.00
2022-09-20T09:30:43.084Z,4.00
2022-09-20T09:35:53.699Z,3.00
2022-09-20T09:41:08.629Z,3.33
2022-09-20T09:46:24.726Z,4.00
2022-09-20T09:51:26.972Z,4.00
2022-09-20T09:56:58.725Z,5.00
2022-09-20T10:02:29.373Z,3.00
2022-09-20T10:07:46.294Z,4.67
2022-09-20T10:13:00.476Z,2.67
2022-09-20T10:18:30.538Z,3.00
2022-09-20T10:24:03.675Z,4.00
2022-09-20T10:29:16.073Z,3.33
2022-09-20T10:34:30.984Z,1.00
2022-09-20T10:39:39.307Z,2.00
2022-09-20T10:45:05.739Z,4.00
2022-09-20T10:50:29.514Z,6.00
2022-09-20T10:55:42.397Z,5.00
2022-09-20T11:01:09.402Z,2.00
2022-09-20T11:06:26.688Z,4.00
2022-09-20T11:11:45.602Z,5.00
2022-09-20T11:16:56.336Z,5.00
2022-09-20T11:22:10.081Z,6.00
2022-09-20T11:27:12.263Z,3.00
2022-09-20T11:32:39.549Z,2.67
2022-09-20T11:37:48.043Z,5.00
2022-09-20T11:42:52.749Z,5.00
2022-09-20T11:48:01.270Z,4.00
2022-09-20T11:53:36.638Z,5.00
2022-09-20T11:58:49.032Z,5.00
2022-09-20T12:04:14.261Z,4.00
2022-09-20T12:09:32.873Z,4.00
2022-09-20T12:14:35.205Z,3.00
2022-09-20T12:19:38.992Z,5.00
2022-09-20T12:24:45.265Z,5.00
2022-09-20T12:29:47.980Z,4.33
2022-09-20T12:34:50.336Z,5.67
2022-09-20T12:39:56.236Z,5.00
2022-09-20T12:45:03.415Z,2.00
2022-09-20T12:50:33.610Z,4.00
2022-09-20T12:55:51.707Z,4.00
2022-09-20T13:00:59.642Z,4.00
2022-09-20T13:06:09.902Z,3.00
2022-09-20T13:11:24.991Z,1.00
2022-09-20T13:16:33.294Z,5.00
2022-09-20T13:21:40.573Z,3.67
2022-09-20T13:26:47.452Z,5.33
2022-09-20T13:31:50.101Z,5.67
2022-09-20T13:36:58.416Z,5.00
2022-09-20T13:42:07.075Z,4.00
2022-09-20T13:47:27.682Z,5.00
2022-09-20T13:52:31.871Z,5.00
2022-09-20T13:57:35.243Z,4.00
2022-09-20T14:02:39.918Z,4.00
2022-09-20T14:07:46.226Z,3.00
2022-09-20T14:12:49.793Z,1.00
2022-09-20T14:17:53.405Z,3.00
2022-09-20T14:22:59.049Z,5.33
2022-09-20T14:28:18.851Z,3.00
2022-09-20T14:33:21.327Z,4.00
2022-09-20T14:38:27.208Z,2.33
2022-09-20T14:43:33.085Z,2.00
2022-09-20T14:48:45.524Z,3.00
2022-09-20T14:54:13.049Z,2.00
2022-09-20T14:59:15.158Z,2.00
2022-09-20T15:04:21.723Z,1.00
2022-09-20T15:09:24.087Z,2.00
2022-09-20T15:14:26.667Z,1.00
2022-09-20T15:19:30.711Z,0.00
2022-09-20T15:24:32.949Z,1.00
2022-09-20T15:29:35.137Z,1.67
2022-09-20T15:34:37.568Z,2.00
2022-09-20T15:39:39.971Z,0.00
2022-09-20T15:44:42.139Z,1.33
2022-09-20T15:49:46.763Z,1.00
2022-09-20T15:54:49.346Z,1.00
2022-09-20T15:59:52.160Z,0.33
2022-09-20T16:04:56.392Z,1.00
2022-09-20T16:09:58.654Z,2.00
2022-09-20T16:15:00.935Z,0.33
2022-09-20T16:20:03.442Z,1.00
2022-09-20T16:25:08.837Z,0.67
2022-09-20T16:30:11.709Z,1.00
2022-09-20T16:35:13.973Z,0.00
2022-09-20T16:40:16.274Z,0.00
2022-09-20T16:45:18.438Z,1.00
2022-09-20T16:50:20.681Z,1.00
2022-09-20T16:55:22.834Z,1.33
2022-09-20T17:00:25.099Z,1.00
2022-09-20T17:05:27.312Z,1.00
2022-09-20T17:10:29.949Z,1.33
2022-09-20T17:15:32.104Z,1.00
2022-09-20T17:20:34.369Z,1.00
2022-09-20T17:25:37.045Z,0.67
2022-09-20T17:30:39.306Z,1.33
2022-09-20T17:35:51.695Z,1.00
2022-09-20T17:41:08.640Z,1.00
2022-09-20T17:46:24.476Z,0.00
2022-09-20T17:51:32.894Z,1.00
2022-09-20T17:56:35.661Z,1.00
2022-09-20T18:01:38.989Z,1.00
2022-09-20T18:06:47.475Z,1.00
2022-09-20T18:11:55.692Z,1.00
2022-09-20T18:17:01.368Z,1.00
2022-09-20T18:22:04.280Z,1.00
2022-09-20T18:27:06.525Z,1.33
2022-09-20T18:32:08.767Z,1.00
2022-09-20T18:37:14.711Z,2.00
2022-09-20T18:42:17.382Z,1.00
2022-09-20T18:47:20.380Z,1.00
2022-09-20T18:52:25.547Z,1.00
2022-09-20T18:57:31.425Z,1.00
2022-09-20T19:02:55.407Z,1.00
2022-09-20T19:08:34.231Z,1.00
2022-09-20T19:13:55.498Z,0.67
2022-09-20T19:19:03.425Z,2.00
2022-09-20T19:24:33.504Z,2.00
2022-09-20T19:29:37.892Z,1.00
2022-09-20T19:34:44.405Z,2.00
2022-09-20T19:40:01.516Z,1.67
2022-09-20T19:45:04.398Z,1.00
2022-09-20T19:50:28.014Z,1.33
2022-09-20T19:55:35.191Z,1.00
2022-09-20T20:00:37.878Z,1.33
2022-09-20T20:05:48.365Z,1.00
2022-09-20T20:10:50.466Z,0.67
2022-09-20T20:16:00.177Z,1.33
2022-09-20T20:21:11.775Z,2.00
2022-09-20T20:26:20.992Z,0.00
2022-09-20T20:31:23.409Z,1.00
2022-09-20T20:36:25.598Z,1.00
2022-09-20T20:41:27.758Z,1.00
2022-09-20T20:46:32.642Z,1.00
2022-09-20T20:51:34.834Z,1.33
2022-09-20T20:56:36.989Z,2.33
2022-09-20T21:01:45.936Z,2.00
2022-09-20T21:06:50.230Z,1.33
2022-09-20T21:11:52.797Z,1.00
2022-09-20T21:16:55.013Z,2.00
2022-09-20T21:21:57.164Z,2.00
2022-09-20T21:26:59.439Z,2.00
2022-09-20T21:32:01.729Z,1.33
2022-09-20T21:37:04.450Z,2.00
2022-09-20T21:42:07.338Z,1.67
2022-09-20T21:47:10.106Z,2.33
2022-09-20T21:52:12.294Z,2.00
2022-09-20T21:57:14.493Z,2.00
2022-09-20T22:02:17.135Z,2.00
2022-09-20T22:07:19.647Z,1.00
2022-09-20T22:12:24.099Z,2.00
2022-09-20T22:17:29.601Z,4.00
2022-09-20T22:22:31.836Z,2.00
2022-09-20T22:27:33.983Z,2.00
2022-09-20T22:32:36.117Z,2.00
2022-09-20T22:37:38.248Z,2.00
2022-09-20T22:42:40.373Z,2.75
2022-09-20T22:47:44.404Z,2.00
2022-09-20T22:52:46.553Z,1.00
2022-09-20T22:57:52.595Z,2.00
2022-09-20T23:02:59.037Z,0.33
2022-09-20T23:08:01.376Z,2.25
2022-09-20T23:13:03.550Z,1.00
2022-09-20T23:18:05.745Z,3.00
2022-09-20T23:23:07.895Z,2.00
2022-09-20T23:28:10.169Z,2.00
2022-09-20T23:33:12.274Z,2.00
2022-09-20T23:38:14.724Z,2.00
2022-09-20T23:43:16.945Z,1.00
2022-09-20T23:48:19.229Z,3.00
2022-09-20T23:53:21.870Z,3.25
2022-09-20T23:58:24.269Z,2.00
